Time;durP1;ratioP1;P1;durP2;ratioP2;P2;SDS_P1;SDS_P2;PMS_P1;PMS_P2;Temp;Humidity;BMP_temperature;BMP_pressure;BME280_temperature;BME280_humidity;BME280_pressure;Samples;Min_cycle;Max_cycle;Signal;HPM_P1;HPM_P2
2023/03/26 00:02:07;;;;;;;39.40;25.63;;;;;;;;;;6303151;22;20076;-76
2023/03/26 00:04:33;;;;;;;44.50;26.90;;;;;;;;;;6303486;22;20443;-76
2023/03/26 00:06:59;;;;;;;44.45;25.67;;;;;;;;;;6301587;22;20056;-77
2023/03/26 00:09:25;;;;;;;32.47;20.75;;;;;;;;;;6303319;22;20019;-76
2023/03/26 00:11:51;;;;;;;38.08;24.40;;;;;;;;;;6275980;22;20018;-75
2023/03/26 00:14:17;;;;;;;39.58;25.25;;;;;;;;;;6303154;22;20027;-75
2023/03/26 00:17:03;;;;;;;40.30;24.45;;;;;;;;;;6301832;22;20003;-77
2023/03/26 00:19:29;;;;;;;46.00;26.00;;;;;;;;;;6303427;22;20015;-76
2023/03/26 00:21:56;;;;;;;41.53;24.52;;;;;;;;;;6302909;22;20011;-76
2023/03/26 00:24:28;;;;;;;42.00;24.67;;;;;;;;;;6302571;22;20053;-76
2023/03/26 00:29:58;;;;;;;34.83;21.73;;;;;;;;;;6302635;22;20023;-76
2023/03/26 00:32:26;;;;;;;38.70;22.83;;;;;;;;;;6303265;22;20013;-77
2023/03/26 00:34:54;;;;;;;46.78;23.98;;;;;;;;;;6301047;22;20011;-77
2023/03/26 00:37:25;;;;;;;46.92;24.85;;;;;;;;;;6301480;22;20011;-77
2023/03/26 00:39:52;;;;;;;45.75;23.92;;;;;;;;;;6302752;22;20037;-76
2023/03/26 00:42:17;;;;;;;47.05;25.40;;;;;;;;;;6301474;22;20015;-77
2023/03/26 00:44:44;;;;;;;51.13;25.38;;;;;;;;;;6301487;22;20093;-77
2023/03/26 00:47:10;;;;;;;48.95;26.90;;;;;;;;;;6302712;22;20007;-78
2023/03/26 00:49:36;;;;;;;55.00;26.52;;;;;;;;;;6302858;22;20030;-75
2023/03/26 00:52:02;;;;;;;49.30;25.80;;;;;;;;;;6302917;22;20014;-76
2023/03/26 00:54:28;;;;;;;49.67;25.33;;;;;;;;;;6275513;22;20018;-76
2023/03/26 00:56:54;;;;;;;49.67;26.55;;;;;;;;;;6302602;22;20090;-74
2023/03/26 00:59:57;;;;;;;52.63;26.25;;;;;;;;;;6302399;22;20011;-76
2023/03/26 01:02:26;;;;;;;52.45;25.65;;;;;;;;;;6301075;22;20045;-76
2023/03/26 01:04:56;;;;;;;51.85;27.42;;;;;;;;;;6302322;22;20039;-76
2023/03/26 01:07:27;;;;;;;53.77;25.33;;;;;;;;;;6301397;22;20603;-75
2023/03/26 01:09:55;;;;;;;59.58;27.75;;;;;;;;;;6300887;22;20023;-77
2023/03/26 01:12:22;;;;;;;56.55;26.58;;;;;;;;;;6301032;22;20307;-76
2023/03/26 01:14:48;;;;;;;56.60;28.02;;;;;;;;;;6301096;22;20443;-80
2023/03/26 01:17:14;;;;;;;61.58;27.17;;;;;;;;;;6300654;22;20121;-77
2023/03/26 01:20:13;;;;;;;59.53;26.52;;;;;;;;;;6302259;22;20076;-77
2023/03/26 01:22:41;;;;;;;65.47;29.02;;;;;;;;;;6301798;22;20667;-76
2023/03/26 01:28:11;;;;;;;55.47;25.65;;;;;;;;;;6301247;22;20341;-76
2023/03/26 01:30:40;;;;;;;68.82;26.52;;;;;;;;;;6303243;22;20050;-76
2023/03/26 01:33:15;;;;;;;54.00;24.30;;;;;;;;;;6300829;22;20011;-75
2023/03/26 01:35:46;;;;;;;64.65;26.08;;;;;;;;;;6302160;22;20017;-76
2023/03/26 01:38:21;;;;;;;75.80;30.08;;;;;;;;;;6301158;22;20014;-77
2023/03/26 01:40:57;;;;;;;80.00;31.10;;;;;;;;;;6273509;22;20011;-76
2023/03/26 01:43:24;;;;;;;85.07;31.08;;;;;;;;;;6300057;22;20011;-75
2023/03/26 01:49:12;;;;;;;109.03;33.92;;;;;;;;;;6288090;22;20447;-76
2023/03/26 01:51:39;;;;;;;147.35;53.42;;;;;;;;;;6316080;22;20008;-75
2023/03/26 01:54:25;;;;;;;179.35;68.07;;;;;;;;;;6317594;22;20015;-76
2023/03/26 01:57:07;;;;;;;106.20;46.38;;;;;;;;;;6288285;22;20012;-75
2023/03/26 01:59:45;;;;;;;256.30;58.42;;;;;;;;;;6309351;22;20015;-76
2023/03/26 02:02:12;;;;;;;56.42;27.50;;;;;;;;;;6311180;22;20011;-77
2023/03/26 02:04:39;;;;;;;68.63;25.77;;;;;;;;;;6314908;22;20018;-76
2023/03/26 02:07:11;;;;;;;439.08;48.75;;;;;;;;;;6306705;22;20451;-76
2023/03/26 02:09:40;;;;;;;226.05;38.70;;;;;;;;;;6301839;22;20023;-78
2023/03/26 02:12:06;;;;;;;175.00;32.05;;;;;;;;;;6275257;22;20397;-76
2023/03/26 02:14:33;;;;;;;169.63;32.17;;;;;;;;;;6301112;22;20018;-76
2023/03/26 02:17:22;;;;;;;91.15;28.35;;;;;;;;;;6301358;22;20443;-76
2023/03/26 02:19:50;;;;;;;349.17;30.17;;;;;;;;;;6276029;22;20025;-77
2023/03/26 02:22:16;;;;;;;89.72;24.65;;;;;;;;;;6300782;22;20551;-77
2023/03/26 02:24:43;;;;;;;147.15;23.63;;;;;;;;;;6302464;22;20455;-77
2023/03/26 02:27:11;;;;;;;43.20;19.77;;;;;;;;;;6300931;22;20019;-76
2023/03/26 02:29:38;;;;;;;37.55;19.55;;;;;;;;;;6302617;22;20019;-77
2023/03/26 02:32:07;;;;;;;52.90;22.35;;;;;;;;;;6300615;22;20011;-77
2023/03/26 02:34:33;;;;;;;43.38;20.05;;;;;;;;;;6301182;22;20015;-77
2023/03/26 02:36:59;;;;;;;372.88;37.63;;;;;;;;;;6302458;22;20011;-77
2023/03/26 02:39:26;;;;;;;126.93;26.02;;;;;;;;;;6301075;22;20015;-77
2023/03/26 02:42:04;;;;;;;147.48;26.48;;;;;;;;;;6300860;22;20013;-77
2023/03/26 02:44:37;;;;;;;134.02;26.48;;;;;;;;;;6301091;22;20015;-76
2023/03/26 02:47:18;;;;;;;263.05;26.52;;;;;;;;;;6301748;22;20014;-77
2023/03/26 02:50:15;;;;;;;419.55;29.67;;;;;;;;;;6265882;22;20015;-76
2023/03/26 02:52:56;;;;;;;623.85;33.50;;;;;;;;;;6308333;22;20089;-77
2023/03/26 02:55:22;;;;;;;371.80;28.45;;;;;;;;;;6283827;22;20007;-75
2023/03/26 02:57:50;;;;;;;516.30;31.27;;;;;;;;;;6308745;22;20011;-76
2023/03/26 03:00:34;;;;;;;403.10;29.13;;;;;;;;;;6311795;22;20018;-77
2023/03/26 03:03:23;;;;;;;394.05;31.67;;;;;;;;;;6311604;22;20063;-76
2023/03/26 03:05:58;;;;;;;446.00;36.00;;;;;;;;;;6309574;22;20016;-76
2023/03/26 03:08:37;;;;;;;449.38;37.08;;;;;;;;;;6305218;22;20051;-77
2023/03/26 03:11:10;;;;;;;233.90;27.38;;;;;;;;;;6278315;22;20073;-77
2023/03/26 03:13:40;;;;;;;117.75;25.75;;;;;;;;;;6303463;22;20010;-77
2023/03/26 03:16:06;;;;;;;672.50;40.25;;;;;;;;;;6276981;22;20015;-76
2023/03/26 03:18:33;;;;;;;206.93;27.58;;;;;;;;;;6302629;22;20026;-77
2023/03/26 03:21:00;;;;;;;387.20;28.40;;;;;;;;;;6302469;22;20007;-77
2023/03/26 03:26:14;;;;;;;124.75;25.40;;;;;;;;;;6302322;22;20061;-76
2023/03/26 03:28:44;;;;;;;120.78;27.00;;;;;;;;;;6303090;22;20399;-76
2023/03/26 03:31:13;;;;;;;341.48;27.35;;;;;;;;;;6301881;22;20018;-76
2023/03/26 03:33:41;;;;;;;207.52;23.63;;;;;;;;;;6300796;22;20034;-76
2023/03/26 03:36:09;;;;;;;379.42;31.33;;;;;;;;;;6299495;22;20007;-76
2023/03/26 03:38:37;;;;;;;481.05;33.22;;;;;;;;;;6249224;22;20111;-76
2023/03/26 03:41:04;;;;;;;397.52;32.55;;;;;;;;;;6299527;22;20068;-76
2023/03/26 03:43:33;;;;;;;437.25;33.53;;;;;;;;;;6300036;22;20355;-76
2023/03/26 03:48:55;;;;;;;565.58;41.28;;;;;;;;;;6301571;22;20533;-76
2023/03/26 03:51:26;;;;;;;407.25;36.22;;;;;;;;;;6302467;22;20092;-78
2023/03/26 03:53:57;;;;;;;374.67;34.65;;;;;;;;;;6304339;22;20085;-77
2023/03/26 03:59:37;;;;;;;466.52;39.25;;;;;;;;;;6303606;22;20011;-76
2023/03/26 04:02:06;;;;;;;209.77;33.67;;;;;;;;;;6301856;22;20094;-76
2023/03/26 04:04:39;;;;;;;242.18;33.47;;;;;;;;;;6301895;22;20007;-77
2023/03/26 04:07:09;;;;;;;309.87;34.57;;;;;;;;;;6302221;22;20351;-76
2023/03/26 04:09:51;;;;;;;153.45;29.88;;;;;;;;;;6279554;22;20479;-76
2023/03/26 04:12:20;;;;;;;311.80;33.30;;;;;;;;;;6301769;22;20019;-76
2023/03/26 04:15:12;;;;;;;181.95;28.25;;;;;;;;;;6297185;22;20094;-76
2023/03/26 04:17:57;;;;;;;194.43;27.50;;;;;;;;;;6303605;22;20015;-77
2023/03/26 04:20:45;;;;;;;323.77;27.60;;;;;;;;;;6301968;22;20018;-76
2023/03/26 04:23:30;;;;;;;352.17;29.83;;;;;;;;;;6303781;22;20504;-77
2023/03/26 04:26:03;;;;;;;437.13;36.13;;;;;;;;;;6301811;22;20490;-76
2023/03/26 04:28:49;;;;;;;242.45;26.27;;;;;;;;;;6301953;22;20113;-77
2023/03/26 04:31:23;;;;;;;417.70;27.58;;;;;;;;;;6301536;22;20018;-77
2023/03/26 04:33:53;;;;;;;448.70;32.95;;;;;;;;;;6276552;22;20014;-76
2023/03/26 04:36:21;;;;;;;246.63;23.05;;;;;;;;;;6301311;22;20482;-76
2023/03/26 04:38:50;;;;;;;235.27;23.10;;;;;;;;;;6276744;22;20034;-76
2023/03/26 04:41:21;;;;;;;294.95;22.35;;;;;;;;;;6275652;22;20054;-76
2023/03/26 04:44:00;;;;;;;403.58;27.13;;;;;;;;;;6301958;22;20020;-75
2023/03/26 04:47:04;;;;;;;136.20;19.02;;;;;;;;;;6301842;22;20483;-76
2023/03/26 04:49:56;;;;;;;153.20;17.25;;;;;;;;;;6301648;22;20490;-75
2023/03/26 04:52:40;;;;;;;124.38;15.27;;;;;;;;;;6301698;22;20404;-75
2023/03/26 04:55:45;;;;;;;187.45;16.23;;;;;;;;;;6302972;22;20053;-76
2023/03/26 04:58:50;;;;;;;163.57;17.67;;;;;;;;;;6303043;22;20039;-75
2023/03/26 05:01:17;;;;;;;62.92;14.10;;;;;;;;;;6301181;22;20012;-75
2023/03/26 05:03:45;;;;;;;59.20;13.57;;;;;;;;;;6301701;22;20018;-77
2023/03/26 05:06:12;;;;;;;136.00;15.77;;;;;;;;;;6275704;22;20004;-77
2023/03/26 05:08:40;;;;;;;108.88;14.13;;;;;;;;;;6303121;22;20015;-77
2023/03/26 05:11:10;;;;;;;54.97;13.07;;;;;;;;;;6300988;22;20018;-77
2023/03/26 05:13:36;;;;;;;52.63;13.55;;;;;;;;;;6301043;22;20031;-76
2023/03/26 05:16:07;;;;;;;59.50;16.48;;;;;;;;;;6300375;22;20072;-80
2023/03/26 05:19:00;;;;;;;44.30;14.27;;;;;;;;;;6298523;22;20023;-80
2023/03/26 05:24:39;;;;;;;57.58;16.92;;;;;;;;;;6301788;22;20018;-80
2023/03/26 05:27:05;;;;;;;51.95;15.57;;;;;;;;;;6275981;22;20038;-78
2023/03/26 05:29:33;;;;;;;48.15;17.67;;;;;;;;;;6276557;22;20076;-80
2023/03/26 05:32:00;;;;;;;42.97;17.52;;;;;;;;;;6301436;22;20011;-80
2023/03/26 05:34:27;;;;;;;56.97;22.08;;;;;;;;;;6275663;22;20481;-78
2023/03/26 05:36:53;;;;;;;65.70;27.00;;;;;;;;;;6301693;22;20455;-78
2023/03/26 05:39:34;;;;;;;91.50;32.28;;;;;;;;;;6278957;22;20007;-79
2023/03/26 05:42:36;;;;;;;64.88;25.83;;;;;;;;;;6301869;22;20060;-78
2023/03/26 05:45:26;;;;;;;62.97;25.15;;;;;;;;;;6301351;22;20083;-79
2023/03/26 05:47:54;;;;;;;51.70;25.02;;;;;;;;;;6301594;22;20394;-78
2023/03/26 05:50:23;;;;;;;64.95;26.27;;;;;;;;;;6301422;22;20030;-78
2023/03/26 05:56:03;;;;;;;46.78;22.38;;;;;;;;;;6303434;22;20011;-80
2023/03/26 05:58:47;;;;;;;57.45;20.90;;;;;;;;;;6302786;22;20340;-78
2023/03/26 06:01:43;;;;;;;57.20;22.30;;;;;;;;;;6268715;22;20042;-78
2023/03/26 06:04:33;;;;;;;54.67;22.50;;;;;;;;;;6302719;22;20098;-78
2023/03/26 06:07:21;;;;;;;46.03;19.75;;;;;;;;;;6291968;22;20449;-77
2023/03/26 06:10:08;;;;;;;42.90;20.27;;;;;;;;;;6307513;22;20067;-78
2023/03/26 06:12:35;;;;;;;39.60;19.70;;;;;;;;;;6309924;22;20011;-73
2023/03/26 06:15:03;;;;;;;39.83;20.02;;;;;;;;;;6313098;22;20027;-74
2023/03/26 06:17:42;;;;;;;39.50;17.98;;;;;;;;;;6309626;22;20019;-75
2023/03/26 06:20:45;;;;;;;27.70;15.45;;;;;;;;;;6311427;22;20393;-74
2023/03/26 06:23:34;;;;;;;24.95;15.07;;;;;;;;;;6302359;22;20039;-75
2023/03/26 06:26:00;;;;;;;19.15;12.95;;;;;;;;;;6302466;22;20617;-74
2023/03/26 06:32:12;;;;;;;14.38;10.65;;;;;;;;;;6290443;22;20090;-77
2023/03/26 06:34:45;;;;;;;13.98;11.82;;;;;;;;;;6274392;22;20037;-77
2023/03/26 06:37:11;;;;;;;18.60;11.07;;;;;;;;;;6297206;22;20009;-78
2023/03/26 06:39:37;;;;;;;14.23;10.85;;;;;;;;;;6299557;22;20021;-77
2023/03/26 06:42:15;;;;;;;12.45;10.27;;;;;;;;;;6297274;22;20014;-77
2023/03/26 06:44:50;;;;;;;10.93;9.48;;;;;;;;;;6299558;22;20098;-76
2023/03/26 06:47:34;;;;;;;10.48;8.80;;;;;;;;;;6300615;22;20011;-78
2023/03/26 06:50:40;;;;;;;10.48;9.02;;;;;;;;;;6300434;22;20023;-77
2023/03/26 06:53:13;;;;;;;;;;;;;;;;;;6300695;22;20011;-76
2023/03/26 06:58:49;;;;;;;10.57;9.32;;;;;;;;;;6299363;22;20003;-77
2023/03/26 07:01:38;;;;;;;8.40;7.53;;;;;;;;;;6271670;22;20019;-77
2023/03/26 07:04:23;;;;;;;8.25;7.45;;;;;;;;;;6301532;22;20386;-76
2023/03/26 07:07:07;;;;;;;9.00;8.07;;;;;;;;;;6301611;22;20027;-77
2023/03/26 07:10:02;;;;;;;9.23;8.32;;;;;;;;;;6244302;22;20020;-77
2023/03/26 07:12:45;;;;;;;9.25;8.35;;;;;;;;;;6277581;22;20363;-76
2023/03/26 07:15:29;;;;;;;8.63;7.82;;;;;;;;;;6301279;22;20022;-76
2023/03/26 07:21:18;;;;;;;9.02;7.55;;;;;;;;;;6273819;22;20309;-75
2023/03/26 07:26:48;;;;;;;7.05;6.35;;;;;;;;;;6282085;22;20367;-75
2023/03/26 07:32:36;;;;;;;9.35;8.43;;;;;;;;;;6228644;22;20099;-75
2023/03/26 07:35:16;;;;;;;8.13;7.32;;;;;;;;;;6299538;22;19999;-75
2023/03/26 07:37:58;;;;;;;10.25;8.93;;;;;;;;;;6251369;22;20108;-76
2023/03/26 07:40:56;;;;;;;12.82;11.32;;;;;;;;;;6300747;22;20018;-74
2023/03/26 07:43:53;;;;;;;11.52;8.20;;;;;;;;;;6303360;22;20007;-74
2023/03/26 07:46:48;;;;;;;8.80;7.97;;;;;;;;;;6288297;22;20458;-75
2023/03/26 07:49:53;;;;;;;12.00;9.00;;;;;;;;;;6237460;23;20034;-77
2023/03/26 07:52:53;;;;;;;9.73;8.93;;;;;;;;;;6212457;23;20034;-75
2023/03/26 07:55:30;;;;;;;10.70;9.63;;;;;;;;;;6287592;22;20417;-75
2023/03/26 07:58:55;;;;;;;15.68;14.10;;;;;;;;;;6284289;22;20084;-76
2023/03/26 08:01:48;;;;;;;7.97;7.10;;;;;;;;;;6302725;22;20010;-77
2023/03/26 08:04:48;;;;;;;8.75;8.05;;;;;;;;;;6300483;22;20344;-78
2023/03/26 08:07:36;;;;;;;9.88;8.98;;;;;;;;;;6294232;22;20072;-77
2023/03/26 08:10:51;;;;;;;9.05;8.25;;;;;;;;;;6297135;22;20483;-78
2023/03/26 08:13:24;;;;;;;11.40;10.20;;;;;;;;;;6242684;22;20003;-75
2023/03/26 08:15:53;;;;;;;11.65;10.50;;;;;;;;;;6299893;22;20011;-78
2023/03/26 08:18:48;;;;;;;9.57;8.57;;;;;;;;;;6302107;22;20094;-78
2023/03/26 08:21:34;;;;;;;12.65;11.35;;;;;;;;;;6206715;22;20144;-80
2023/03/26 08:24:17;;;;;;;8.10;7.40;;;;;;;;;;6298899;22;20007;-78
2023/03/26 08:27:01;;;;;;;;;;;;;;;;;;6299792;22;20014;-79
2023/03/26 08:30:01;;;;;;;10.75;8.13;;;;;;;;;;6297267;22;20023;-77
2023/03/26 08:32:29;;;;;;;14.35;10.70;;;;;;;;;;6299132;22;20007;-76
2023/03/26 08:34:56;;;;;;;11.43;9.23;;;;;;;;;;6298122;22;20046;-76
2023/03/26 08:37:22;;;;;;;9.15;8.35;;;;;;;;;;6300190;22;20095;-76
2023/03/26 08:39:48;;;;;;;9.18;8.30;;;;;;;;;;6302705;22;20406;-76
2023/03/26 08:42:14;;;;;;;15.85;14.25;;;;;;;;;;6302687;22;20007;-79
2023/03/26 08:44:59;;;;;;;10.95;9.95;;;;;;;;;;6300722;22;20033;-78
2023/03/26 08:47:26;;;;;;;17.88;14.73;;;;;;;;;;6301964;22;20090;-75
2023/03/26 08:50:11;;;;;;;13.57;12.27;;;;;;;;;;6301153;22;20018;-80
2023/03/26 08:56:01;;;;;;;14.93;11.68;;;;;;;;;;6300065;22;20023;-77
2023/03/26 08:58:53;;;;;;;14.60;12.05;;;;;;;;;;6299620;22;20011;-77
2023/03/26 09:01:19;;;;;;;14.43;12.90;;;;;;;;;;6299501;22;20093;-78
2023/03/26 09:03:52;;;;;;;11.73;10.63;;;;;;;;;;6300951;22;20007;-80
2023/03/26 09:06:24;;;;;;;11.18;9.48;;;;;;;;;;6299892;22;20026;-78
2023/03/26 09:09:09;;;;;;;12.80;10.80;;;;;;;;;;6302156;22;20019;-76
2023/03/26 09:11:45;;;;;;;8.90;8.20;;;;;;;;;;6302040;22;20007;-81
2023/03/26 09:14:30;;;;;;;11.48;10.45;;;;;;;;;;6304639;22;20043;-79
2023/03/26 09:17:06;;;;;;;8.23;7.38;;;;;;;;;;6301309;22;20776;-75
2023/03/26 09:19:39;;;;;;;6.60;6.07;;;;;;;;;;6301062;22;20047;-74
2023/03/26 09:22:33;;;;;;;3.92;3.72;;;;;;;;;;6299055;22;20152;-75
2023/03/26 09:27:59;;;;;;;6.88;6.38;;;;;;;;;;6276242;22;20018;-74
2023/03/26 09:30:28;;;;;;;9.27;8.05;;;;;;;;;;6298358;22;20015;-74
2023/03/26 09:33:13;;;;;;;7.90;7.25;;;;;;;;;;6301281;22;20011;-74
2023/03/26 09:35:52;;;;;;;9.93;9.05;;;;;;;;;;6300076;22;20068;-75
2023/03/26 09:38:31;;;;;;;8.23;7.53;;;;;;;;;;6299725;22;20469;-74
2023/03/26 09:41:03;;;;;;;18.05;12.18;;;;;;;;;;6298273;22;20578;-75
2023/03/26 09:43:48;;;;;;;8.65;7.95;;;;;;;;;;6297960;22;20058;-76
2023/03/26 09:49:24;;;;;;;12.27;11.13;;;;;;;;;;6300971;22;20019;-75
2023/03/26 09:52:02;;;;;;;18.08;14.02;;;;;;;;;;6301349;22;20090;-74
2023/03/26 09:54:43;;;;;;;17.58;13.60;;;;;;;;;;6302601;22;20076;-75
2023/03/26 09:57:14;;;;;;;24.50;18.15;;;;;;;;;;6301184;22;20336;-75
2023/03/26 10:00:00;;;;;;;21.23;16.83;;;;;;;;;;6300733;22;20124;-74
2023/03/26 10:02:45;;;;;;;16.42;13.23;;;;;;;;;;6301052;22;20479;-75
2023/03/26 10:05:19;;;;;;;15.45;11.27;;;;;;;;;;6302665;22;20490;-74
2023/03/26 10:07:45;;;;;;;11.05;9.90;;;;;;;;;;6302687;22;20011;-74
2023/03/26 10:10:22;;;;;;;23.77;17.13;;;;;;;;;;6302685;22;20023;-74
2023/03/26 10:12:59;;;;;;;20.20;14.38;;;;;;;;;;6302798;22;20072;-74
2023/03/26 10:15:44;;;;;;;25.23;17.95;;;;;;;;;;6301675;22;20007;-73
2023/03/26 10:21:29;;;;;;;22.58;17.95;;;;;;;;;;6302942;22;20011;-76
2023/03/26 10:23:59;;;;;;;23.83;16.52;;;;;;;;;;6303498;22;20018;-75
2023/03/26 10:26:25;;;;;;;35.60;22.92;;;;;;;;;;6301210;22;20007;-73
2023/03/26 10:29:09;;;;;;;29.23;18.52;;;;;;;;;;6303991;22;20019;-75
2023/03/26 10:31:35;;;;;;;30.98;19.27;;;;;;;;;;6304585;22;20464;-74
2023/03/26 10:34:05;;;;;;;34.28;20.27;;;;;;;;;;6316425;22;20035;-74
2023/03/26 10:36:31;;;;;;;44.08;24.73;;;;;;;;;;6322065;22;19999;-75
2023/03/26 10:39:12;;;;;;;34.45;21.15;;;;;;;;;;6318036;22;20038;-74
2023/03/26 10:41:38;;;;;;;39.72;25.10;;;;;;;;;;6304859;22;20479;-74
2023/03/26 10:44:14;;;;;;;37.95;23.45;;;;;;;;;;6275870;22;20038;-73
2023/03/26 10:46:52;;;;;;;43.10;23.77;;;;;;;;;;6302408;22;20011;-77
2023/03/26 10:49:24;;;;;;;40.25;25.85;;;;;;;;;;6302773;22;20038;-76
2023/03/26 10:52:03;;;;;;;36.95;23.77;;;;;;;;;;6299918;22;20011;-78
2023/03/26 10:54:30;;;;;;;32.67;21.95;;;;;;;;;;6300196;22;20007;-77
2023/03/26 10:56:56;;;;;;;44.78;25.20;;;;;;;;;;6303522;22;20073;-78
2023/03/26 10:59:23;;;;;;;48.95;27.95;;;;;;;;;;6300726;22;20015;-76
2023/03/26 11:02:10;;;;;;;49.60;29.13;;;;;;;;;;6300916;22;20007;-77
2023/03/26 11:04:36;;;;;;;47.28;26.90;;;;;;;;;;6301606;22;20015;-76
2023/03/26 11:07:04;;;;;;;46.47;27.10;;;;;;;;;;6302215;22;20057;-76
2023/03/26 11:09:29;;;;;;;42.00;27.35;;;;;;;;;;6301973;22;20662;-76
2023/03/26 11:11:59;;;;;;;49.60;29.35;;;;;;;;;;6302305;22;20039;-76
2023/03/26 11:14:41;;;;;;;51.85;28.42;;;;;;;;;;6302382;22;20015;-76
2023/03/26 11:17:07;;;;;;;49.47;29.00;;;;;;;;;;6304089;22;20019;-77
2023/03/26 11:19:51;;;;;;;43.30;27.02;;;;;;;;;;6301699;22;20046;-76
2023/03/26 11:22:36;;;;;;;54.28;30.42;;;;;;;;;;6302498;22;20064;-77
2023/03/26 11:25:17;;;;;;;57.05;31.50;;;;;;;;;;6303336;22;20015;-78
2023/03/26 11:27:43;;;;;;;;;;;;;;;;;;6302223;22;20094;-76
2023/03/26 11:30:18;;;;;;;56.97;30.60;;;;;;;;;;6302869;22;19950;-77
2023/03/26 11:32:45;;;;;;;58.95;32.00;;;;;;;;;;6303614;22;20015;-77
2023/03/26 11:35:14;;;;;;;48.03;30.30;;;;;;;;;;6276359;22;20011;-77
2023/03/26 11:37:41;;;;;;;53.10;30.48;;;;;;;;;;6303461;22;20097;-77
2023/03/26 11:40:13;;;;;;;55.40;31.05;;;;;;;;;;6302546;22;20015;-77
2023/03/26 11:42:39;;;;;;;46.30;27.10;;;;;;;;;;6302018;22;20023;-76
2023/03/26 11:45:06;;;;;;;57.13;31.88;;;;;;;;;;6302827;22;20034;-77
2023/03/26 11:47:37;;;;;;;70.18;39.47;;;;;;;;;;6276004;22;20367;-76
2023/03/26 11:50:05;;;;;;;50.47;30.83;;;;;;;;;;6302696;22;20019;-76
2023/03/26 11:52:31;;;;;;;62.55;32.53;;;;;;;;;;6301621;22;20007;-76
2023/03/26 11:54:58;;;;;;;56.03;31.88;;;;;;;;;;6303798;22;20022;-77
2023/03/26 11:57:31;;;;;;;56.58;30.45;;;;;;;;;;6301808;22;20484;-76
2023/03/26 12:00:03;;;;;;;76.30;39.28;;;;;;;;;;6302538;22;20014;-77
2023/03/26 12:02:38;;;;;;;66.63;38.73;;;;;;;;;;6303313;22;20042;-76
2023/03/26 12:05:14;;;;;;;58.75;32.20;;;;;;;;;;6303691;22;20074;-77
2023/03/26 12:07:44;;;;;;;63.25;35.13;;;;;;;;;;6302275;22;20026;-77
2023/03/26 12:10:20;;;;;;;66.43;37.97;;;;;;;;;;6304136;22;20046;-77
2023/03/26 12:12:46;;;;;;;70.22;40.50;;;;;;;;;;6303795;22;20462;-77
2023/03/26 12:15:13;;;;;;;66.55;37.42;;;;;;;;;;6276715;22;20015;-78
2023/03/26 12:17:40;;;;;;;76.32;42.20;;;;;;;;;;6301991;22;20025;-78
2023/03/26 12:20:23;;;;;;;49.15;29.48;;;;;;;;;;6306333;22;20570;-78
2023/03/26 12:22:59;;;;;;;67.22;37.42;;;;;;;;;;6303641;22;20015;-77
2023/03/26 12:25:28;;;;;;;67.85;35.67;;;;;;;;;;6301872;22;20585;-77
2023/03/26 12:27:57;;;;;;;69.65;36.95;;;;;;;;;;6302901;22;20050;-74
2023/03/26 12:30:24;;;;;;;67.28;37.28;;;;;;;;;;6302655;22;20019;-79
2023/03/26 12:32:50;;;;;;;68.70;35.58;;;;;;;;;;6276410;22;20014;-78
2023/03/26 12:35:17;;;;;;;58.47;31.17;;;;;;;;;;6301790;22;20011;-80
2023/03/26 12:37:43;;;;;;;59.20;32.05;;;;;;;;;;6303331;22;20014;-78
2023/03/26 12:40:28;;;;;;;60.22;31.15;;;;;;;;;;6302396;22;20015;-77
2023/03/26 12:42:56;;;;;;;62.60;33.35;;;;;;;;;;6305195;22;20470;-77
2023/03/26 12:45:26;;;;;;;52.78;31.67;;;;;;;;;;6277140;22;20008;-77
2023/03/26 12:47:52;;;;;;;39.63;24.43;;;;;;;;;;6305639;22;20019;-77
2023/03/26 12:50:18;;;;;;;59.58;34.65;;;;;;;;;;6301990;22;20292;-77
2023/03/26 12:52:51;;;;;;;45.33;25.83;;;;;;;;;;6303396;22;20015;-77
2023/03/26 12:55:17;;;;;;;51.50;29.52;;;;;;;;;;6303584;22;20011;-78
2023/03/26 12:58:03;;;;;;;43.05;25.25;;;;;;;;;;6303016;22;20090;-77
2023/03/26 13:00:30;;;;;;;55.20;32.08;;;;;;;;;;6256287;22;20015;-78
2023/03/26 13:02:59;;;;;;;56.42;30.40;;;;;;;;;;6302790;22;20011;-77
2023/03/26 13:05:35;;;;;;;50.50;30.15;;;;;;;;;;6302851;22;20015;-79
2023/03/26 13:08:16;;;;;;;46.20;24.90;;;;;;;;;;6303299;22;20081;-78
2023/03/26 13:10:48;;;;;;;58.60;32.78;;;;;;;;;;6297850;22;20019;-80
2023/03/26 13:13:14;;;;;;;38.30;22.98;;;;;;;;;;6301508;22;20488;-76
2023/03/26 13:15:43;;;;;;;51.15;30.17;;;;;;;;;;6302619;22;20089;-80
2023/03/26 13:18:28;;;;;;;53.03;29.75;;;;;;;;;;6303641;22;20021;-81
2023/03/26 13:20:54;;;;;;;46.35;28.40;;;;;;;;;;6303616;22;20011;-80
2023/03/26 13:23:20;;;;;;;38.60;22.10;;;;;;;;;;6308139;22;20016;-83
2023/03/26 13:26:04;;;;;;;42.13;23.95;;;;;;;;;;6302375;22;20630;-80
2023/03/26 13:28:38;;;;;;;44.08;27.67;;;;;;;;;;6302270;22;20407;-79
2023/03/26 13:31:24;;;;;;;44.67;24.92;;;;;;;;;;6248749;22;20015;-79
2023/03/26 13:34:03;;;;;;;44.80;25.27;;;;;;;;;;6307791;22;20018;-81
2023/03/26 13:36:32;;;;;;;46.22;25.05;;;;;;;;;;6310445;22;20018;-81
2023/03/26 13:39:02;;;;;;;38.60;23.05;;;;;;;;;;6311415;22;20011;-82
2023/03/26 13:41:31;;;;;;;46.40;25.73;;;;;;;;;;6308483;22;20069;-84
2023/03/26 13:43:57;;;;;;;45.58;24.30;;;;;;;;;;6303740;22;20144;-82
2023/03/26 13:46:26;;;;;;;45.17;24.30;;;;;;;;;;6303372;22;20015;-82
2023/03/26 13:49:01;;;;;;;40.83;21.30;;;;;;;;;;6304876;22;20542;-82
2023/03/26 13:51:29;;;;;;;48.22;24.08;;;;;;;;;;6312862;22;20026;-80
2023/03/26 13:53:57;;;;;;;41.08;22.63;;;;;;;;;;6311750;22;20011;-80
2023/03/26 13:56:31;;;;;;;54.40;25.67;;;;;;;;;;6319473;22;20026;-84
2023/03/26 13:59:06;;;;;;;54.22;25.90;;;;;;;;;;6282867;22;20011;-82
2023/03/26 14:01:39;;;;;;;63.33;31.27;;;;;;;;;;6309819;22;20007;-85
2023/03/26 14:04:19;;;;;;;60.63;28.65;;;;;;;;;;6284390;22;20015;-82
2023/03/26 14:06:56;;;;;;;47.50;23.50;;;;;;;;;;6305733;22;20015;-81
2023/03/26 14:09:22;;;;;;;44.60;21.52;;;;;;;;;;6303539;22;20015;-82
2023/03/26 14:11:57;;;;;;;58.63;26.83;;;;;;;;;;6306939;22;20018;-83
2023/03/26 14:14:23;;;;;;;53.42;22.48;;;;;;;;;;6305134;22;20011;-83
2023/03/26 14:16:50;;;;;;;50.60;22.55;;;;;;;;;;6306602;22;20132;-81
2023/03/26 14:19:36;;;;;;;46.08;22.48;;;;;;;;;;6312763;22;20401;-82
2023/03/26 14:22:02;;;;;;;49.42;22.70;;;;;;;;;;6307572;22;20015;-82
2023/03/26 14:24:47;;;;;;;47.85;22.88;;;;;;;;;;6313286;22;20022;-83
2023/03/26 14:27:32;;;;;;;60.03;26.10;;;;;;;;;;6322458;22;20379;-85
2023/03/26 14:30:11;;;;;;;55.60;23.90;;;;;;;;;;6327797;22;20019;-82
2023/03/26 14:32:40;;;;;;;56.25;24.83;;;;;;;;;;6307980;22;20063;-83
2023/03/26 14:35:30;;;;;;;55.13;21.17;;;;;;;;;;6345606;22;20017;-82
2023/03/26 14:37:57;;;;;;;47.60;21.70;;;;;;;;;;6340103;22;20011;-85
2023/03/26 14:40:35;;;;;;;46.58;22.15;;;;;;;;;;6332710;22;19995;-83
2023/03/26 14:43:20;;;;;;;53.58;22.75;;;;;;;;;;6310800;22;20015;-86
2023/03/26 14:45:55;;;;;;;51.70;23.85;;;;;;;;;;6354366;22;20007;-85
2023/03/26 14:48:39;;;;;;;54.63;22.38;;;;;;;;;;6361422;22;20007;-83
2023/03/26 14:51:11;;;;;;;44.22;19.23;;;;;;;;;;6358138;22;20015;-83
2023/03/26 14:53:43;;;;;;;46.55;22.05;;;;;;;;;;6331633;22;20014;-85
2023/03/26 14:56:18;;;;;;;43.42;21.13;;;;;;;;;;6356776;22;20017;-82
2023/03/26 14:59:19;;;;;;;49.60;23.70;;;;;;;;;;6358682;22;19990;-84
2023/03/26 15:02:04;;;;;;;60.10;26.15;;;;;;;;;;6209336;23;20016;-83
2023/03/26 15:04:49;;;;;;;50.78;24.42;;;;;;;;;;6326898;22;20010;-84
2023/03/26 15:07:21;;;;;;;54.75;22.13;;;;;;;;;;6360026;22;20016;-82
2023/03/26 15:09:59;;;;;;;58.80;27.77;;;;;;;;;;6303844;22;20023;-84
2023/03/26 15:12:34;;;;;;;62.03;25.05;;;;;;;;;;6358857;22;20090;-85
2023/03/26 15:15:19;;;;;;;60.63;26.13;;;;;;;;;;6363379;22;20034;-83
2023/03/26 15:17:48;;;;;;;50.70;20.83;;;;;;;;;;6366138;22;20018;-87
2023/03/26 15:20:17;;;;;;;54.00;26.02;;;;;;;;;;6363846;22;19998;-82
2023/03/26 15:23:01;;;;;;;51.40;21.98;;;;;;;;;;6365425;22;19995;-83
2023/03/26 15:25:40;;;;;;;66.95;27.70;;;;;;;;;;6337035;22;20011;-84
2023/03/26 15:28:09;;;;;;;54.88;23.52;;;;;;;;;;6363996;22;20010;-83
2023/03/26 15:30:54;;;;;;;46.40;20.38;;;;;;;;;;6335837;22;20022;-82
2023/03/26 15:33:26;;;;;;;58.13;24.73;;;;;;;;;;6361813;22;20017;-84
2023/03/26 15:35:52;;;;;;;56.33;24.33;;;;;;;;;;6333252;22;20018;-84
2023/03/26 15:38:27;;;;;;;65.10;26.20;;;;;;;;;;6359722;22;20010;-83
2023/03/26 15:41:12;;;;;;;55.88;22.88;;;;;;;;;;6357731;22;20021;-84
2023/03/26 15:43:57;;;;;;;53.47;23.88;;;;;;;;;;6328992;22;20098;-83
2023/03/26 15:46:42;;;;;;;60.00;27.30;;;;;;;;;;6295952;22;20029;-82
2023/03/26 15:49:15;;;;;;;62.58;25.40;;;;;;;;;;6297825;22;20023;-84
2023/03/26 15:52:00;;;;;;;70.13;29.67;;;;;;;;;;6303146;22;20017;-82
2023/03/26 15:54:45;;;;;;;59.65;24.90;;;;;;;;;;6355563;22;20013;-84
2023/03/26 15:57:16;;;;;;;51.90;23.83;;;;;;;;;;6353046;22;20007;-83
2023/03/26 15:59:51;;;;;;;51.92;24.90;;;;;;;;;;6325625;22;20021;-82